Betsiamites, Canada
Current Conditions -  °F | °C
As of 2:00 AM on Wednesday 26 Nov 2014 (Local Time) from CYBC Reporting Station
Overcast Overcast  
Wind Chill: 28°   Ceiling: 12000
Heat Index: 36°   Visibility: 9mi
Dew Point: 28°   Wind: 12mph
Humidity: 75%   Direction: 270°W
Pressure: 29.84"   Gusts: 17mph
Location:  48.95°N, 68.65°W
Report Text: CYBC 260700Z AUTO 27010G15KT 9SM OVC120 02/M02 A2984 RMK PRESRR SLP107
Loading
Personal Weather Stations






























Interactive Weather Map New forecast layout! Learn more

10-Day Weather Forecast

Advertisements
Track Severe Weather on mobile